createdAt,value
2022-09-03T00:01:48.251Z,48.04
2022-09-03T00:03:58.122Z,48.50
2022-09-03T00:06:13.276Z,48.40
2022-09-03T00:08:21.041Z,48.53
2022-09-03T00:10:29.565Z,48.59
2022-09-03T00:12:36.972Z,48.56
2022-09-03T00:14:43.803Z,48.43
2022-09-03T00:16:51.961Z,48.75
2022-09-03T00:19:02.862Z,48.49
2022-09-03T00:21:10.207Z,48.49
2022-09-03T00:23:18.537Z,48.84
2022-09-03T00:25:26.790Z,48.55
2022-09-03T00:27:35.295Z,48.41
2022-09-03T00:29:42.548Z,48.31
2022-09-03T00:31:48.888Z,48.86
2022-09-03T00:33:55.594Z,48.75
2022-09-03T00:36:07.805Z,48.88
2022-09-03T00:38:12.545Z,49.16
2022-09-03T00:40:21.761Z,49.41
2022-09-03T00:42:37.223Z,49.18
2022-09-03T00:44:51.322Z,49.33
2022-09-03T00:46:58.845Z,49.50
2022-09-03T00:49:18.230Z,49.75
2022-09-03T00:51:32.099Z,49.76
2022-09-03T00:53:40.270Z,50.20
2022-09-03T00:55:49.742Z,50.15
2022-09-03T00:58:01.731Z,50.28
2022-09-03T01:00:09.107Z,50.18
2022-09-03T01:02:19.457Z,50.44
2022-09-03T01:04:38.100Z,50.33
2022-09-03T01:06:49.100Z,50.27
2022-09-03T01:09:06.023Z,50.26
2022-09-03T01:11:20.134Z,50.02
2022-09-03T01:13:26.807Z,50.45
2022-09-03T01:15:36.762Z,50.39
2022-09-03T01:17:50.395Z,50.53
2022-09-03T01:20:09.961Z,50.86
2022-09-03T01:22:29.297Z,51.16
2022-09-03T01:24:49.792Z,51.54
2022-09-03T01:27:03.627Z,51.55
2022-09-03T01:29:15.682Z,51.72
2022-09-03T01:31:27.177Z,51.53
2022-09-03T01:33:38.407Z,51.33
2022-09-03T01:35:50.015Z,51.31
2022-09-03T01:38:01.498Z,51.23
2022-09-03T01:40:10.893Z,51.41
2022-09-03T01:42:20.465Z,50.95
2022-09-03T01:44:39.523Z,51.22
2022-09-03T01:46:45.868Z,51.17
2022-09-03T01:48:55.302Z,51.35
2022-09-03T01:51:06.191Z,51.24
2022-09-03T01:53:13.383Z,51.41
2022-09-03T01:55:23.860Z,51.03
2022-09-03T01:57:41.937Z,51.09
2022-09-03T01:59:52.546Z,50.87
2022-09-03T02:02:01.676Z,51.05
2022-09-03T02:04:17.150Z,51.62
2022-09-03T02:06:22.309Z,51.64
2022-09-03T02:08:26.787Z,51.48
2022-09-03T02:10:34.309Z,52.02
2022-09-03T02:12:39.597Z,51.51
2022-09-03T02:14:44.176Z,52.16
2022-09-03T02:16:51.503Z,52.27
2022-09-03T02:18:58.647Z,52.31
2022-09-03T02:21:04.008Z,52.56
2022-09-03T02:23:08.695Z,52.47
2022-09-03T02:25:14.121Z,52.47
2022-09-03T02:27:19.024Z,52.54
2022-09-03T02:29:24.158Z,52.49
2022-09-03T02:31:28.989Z,52.46
2022-09-03T02:33:39.633Z,52.85
2022-09-03T02:35:44.746Z,52.85
2022-09-03T02:37:50.314Z,52.66
2022-09-03T02:39:55.102Z,52.58
2022-09-03T02:42:01.722Z,52.49
2022-09-03T02:44:09.314Z,52.54
2022-09-03T02:46:17.765Z,52.76
2022-09-03T02:48:25.718Z,52.91
2022-09-03T02:50:33.023Z,52.91
2022-09-03T02:52:37.634Z,53.03
2022-09-03T02:54:45.248Z,52.96
2022-09-03T02:56:49.971Z,52.97
2022-09-03T02:58:54.498Z,53.46
2022-09-03T03:00:59.120Z,53.57
2022-09-03T03:03:03.680Z,53.35
2022-09-03T03:05:08.991Z,53.59
2022-09-03T03:07:16.249Z,53.77
2022-09-03T03:09:21.170Z,53.44
2022-09-03T03:11:27.494Z,54.08
2022-09-03T03:13:32.603Z,53.64
2022-09-03T03:15:37.181Z,54.04
2022-09-03T03:17:41.768Z,53.92
2022-09-03T03:19:46.436Z,53.80
2022-09-03T03:21:51.087Z,53.98
2022-09-03T03:23:58.197Z,54.07
2022-09-03T03:26:03.829Z,54.10
2022-09-03T03:28:08.932Z,54.63
2022-09-03T03:30:14.439Z,54.33
2022-09-03T03:32:19.233Z,54.32
2022-09-03T03:34:24.460Z,54.34
2022-09-03T03:36:30.383Z,54.42
2022-09-03T03:38:35.142Z,54.77
2022-09-03T03:40:43.004Z,54.78
2022-09-03T03:42:47.637Z,54.54
2022-09-03T03:44:52.300Z,54.73
2022-09-03T03:46:56.885Z,54.75
2022-09-03T03:49:01.984Z,55.05
2022-09-03T03:51:07.585Z,55.17
2022-09-03T03:53:12.269Z,55.37
2022-09-03T03:55:16.985Z,55.18
2022-09-03T03:57:24.361Z,55.67
2022-09-03T03:59:29.025Z,55.42
2022-09-03T04:01:33.624Z,55.65
2022-09-03T04:03:38.886Z,55.95
2022-09-03T04:05:46.270Z,55.94
2022-09-03T04:07:53.134Z,55.95
2022-09-03T04:09:57.694Z,55.76
2022-09-03T04:12:03.664Z,56.13
2022-09-03T04:14:10.808Z,56.08
2022-09-03T04:16:16.244Z,55.96
2022-09-03T04:18:20.809Z,56.30
2022-09-03T04:20:25.367Z,56.05
2022-09-03T04:22:31.345Z,56.15
2022-09-03T04:24:35.958Z,55.95
2022-09-03T04:26:40.753Z,55.92
2022-09-03T04:28:45.750Z,55.59
2022-09-03T04:30:53.016Z,55.75
2022-09-03T04:32:56.144Z,55.93
2022-09-03T04:35:00.793Z,55.91
2022-09-03T04:37:05.373Z,56.16
2022-09-03T04:39:09.942Z,56.30
2022-09-03T04:41:15.617Z,56.49
2022-09-03T04:43:20.136Z,56.70
2022-09-03T04:45:24.740Z,56.66
2022-09-03T04:47:32.123Z,56.44
2022-09-03T04:49:36.726Z,56.78
2022-09-03T04:51:41.292Z,56.41
2022-09-03T04:53:46.942Z,56.09
2022-09-03T04:55:54.489Z,56.19
2022-09-03T04:57:59.053Z,55.76
2022-09-03T05:00:03.667Z,55.60
2022-09-03T05:02:08.383Z,55.40
2022-09-03T05:04:15.915Z,55.45
2022-09-03T05:06:20.833Z,55.54
2022-09-03T05:08:26.724Z,55.22
2022-09-03T05:10:31.494Z,55.21
2022-09-03T05:12:36.215Z,55.20
2022-09-03T05:14:40.781Z,54.89
2022-09-03T05:16:52.606Z,55.25
2022-09-03T05:18:59.275Z,54.66
2022-09-03T05:21:07.361Z,54.98
2022-09-03T05:23:12.385Z,54.95
2022-09-03T05:25:16.990Z,55.02
2022-09-03T05:27:21.549Z,55.14
2022-09-03T05:29:26.164Z,54.98
2022-09-03T05:31:32.107Z,54.99
2022-09-03T05:33:38.010Z,55.34
2022-09-03T05:35:42.842Z,55.00
2022-09-03T05:37:50.071Z,55.00
2022-09-03T05:39:54.785Z,55.13
2022-09-03T05:41:59.444Z,54.84
2022-09-03T05:44:06.189Z,55.07
2022-09-03T05:46:12.204Z,54.94
2022-09-03T05:48:16.830Z,54.94
2022-09-03T05:50:21.374Z,54.86
2022-09-03T05:52:26.007Z,54.75
2022-09-03T05:54:33.229Z,54.50
2022-09-03T05:56:40.210Z,54.93
2022-09-03T05:58:45.510Z,54.39
2022-09-03T06:00:50.824Z,54.62
2022-09-03T06:02:55.853Z,54.64
2022-09-03T06:05:00.535Z,54.62
2022-09-03T06:07:05.220Z,54.98
2022-09-03T06:09:10.895Z,54.78
2022-09-03T06:11:18.082Z,55.05
2022-09-03T06:13:22.757Z,55.04
2022-09-03T06:15:27.454Z,55.07
2022-09-03T06:17:32.046Z,55.05
2022-09-03T06:19:36.640Z,54.82
2022-09-03T06:21:42.970Z,54.91
2022-09-03T06:23:51.822Z,54.53
2022-09-03T06:26:05.529Z,54.69
2022-09-03T06:28:12.830Z,54.41
2022-09-03T06:30:17.707Z,53.99
2022-09-03T06:32:22.338Z,54.30
2022-09-03T06:34:27.340Z,54.04
2022-09-03T06:36:31.962Z,53.96
2022-09-03T06:38:38.086Z,53.66
2022-09-03T06:40:42.669Z,53.64
2022-09-03T06:42:48.015Z,53.48
2022-09-03T06:44:55.264Z,52.78
2022-09-03T06:47:01.575Z,52.64
2022-09-03T06:49:08.992Z,52.56
2022-09-03T06:51:14.491Z,51.64
2022-09-03T06:53:19.092Z,51.79
2022-09-03T06:55:24.246Z,51.17
2022-09-03T06:57:29.734Z,51.05
2022-09-03T06:59:34.486Z,51.59
2022-09-03T07:01:45.341Z,51.35
2022-09-03T07:03:52.143Z,51.46
2022-09-03T07:05:56.751Z,50.84
2022-09-03T07:08:01.332Z,50.94
2022-09-03T07:10:06.521Z,50.81
2022-09-03T07:12:12.220Z,50.50
2022-09-03T07:14:17.169Z,48.87
2022-09-03T07:16:22.754Z,48.14
2022-09-03T07:18:30.168Z,47.12
2022-09-03T07:20:34.778Z,46.19
2022-09-03T07:22:39.301Z,45.58
2022-09-03T07:24:46.987Z,45.60
2022-09-03T07:26:51.845Z,45.51
2022-09-03T07:28:57.063Z,45.73
2022-09-03T07:31:04.913Z,45.70
2022-09-03T07:33:09.601Z,45.74
2022-09-03T07:35:16.869Z,45.79
2022-09-03T07:37:22.033Z,45.72
2022-09-03T07:39:26.843Z,45.81
2022-09-03T07:41:33.376Z,45.90
2022-09-03T07:43:40.127Z,46.20
2022-09-03T07:45:46.600Z,46.18
2022-09-03T07:47:53.065Z,46.07
2022-09-03T07:49:57.687Z,46.15
2022-09-03T07:52:05.087Z,46.27
2022-09-03T07:54:11.572Z,45.84
2022-09-03T07:56:17.240Z,46.09
2022-09-03T07:58:24.685Z,46.21
2022-09-03T08:00:29.341Z,45.94
2022-09-03T08:02:33.951Z,45.48
2022-09-03T08:04:38.750Z,45.28
2022-09-03T08:06:43.439Z,45.32
2022-09-03T08:08:50.730Z,44.49
2022-09-03T08:10:55.354Z,44.09
2022-09-03T08:13:00.463Z,43.90
2022-09-03T08:15:05.322Z,44.38
2022-09-03T08:17:09.857Z,44.81
2022-09-03T08:19:14.955Z,44.29
2022-09-03T08:21:20.884Z,43.69
2022-09-03T08:23:25.476Z,43.45
2022-09-03T08:25:33.271Z,43.22
2022-09-03T08:27:37.845Z,42.68
2022-09-03T08:29:42.418Z,42.20
2022-09-03T08:31:49.245Z,41.44
2022-09-03T08:33:54.645Z,41.54
2022-09-03T08:35:59.331Z,41.43
2022-09-03T08:38:07.172Z,40.91
2022-09-03T08:40:15.491Z,41.18
2022-09-03T08:42:31.579Z,41.12
2022-09-03T08:44:48.397Z,41.05
2022-09-03T08:46:54.435Z,40.92
2022-09-03T08:48:59.966Z,40.67
2022-09-03T08:51:04.953Z,40.53
2022-09-03T08:53:13.992Z,40.80
2022-09-03T08:55:21.239Z,41.02
2022-09-03T08:57:28.927Z,40.69
2022-09-03T08:59:34.623Z,41.22
2022-09-03T09:01:46.307Z,41.11
2022-09-03T09:03:54.230Z,41.59
2022-09-03T09:06:02.252Z,41.44
2022-09-03T09:08:11.954Z,41.67
2022-09-03T09:10:19.344Z,41.76
2022-09-03T09:12:41.397Z,42.05
2022-09-03T09:14:56.764Z,42.39
2022-09-03T09:17:04.943Z,41.80
2022-09-03T09:19:15.961Z,41.98
2022-09-03T09:21:27.564Z,41.79
2022-09-03T09:23:34.094Z,41.83
2022-09-03T09:25:45.628Z,41.72
2022-09-03T09:27:52.655Z,41.57
2022-09-03T09:30:01.987Z,41.50
2022-09-03T09:32:08.043Z,41.29
2022-09-03T09:34:12.619Z,41.13
2022-09-03T09:36:19.533Z,41.67
2022-09-03T09:38:31.305Z,41.46
2022-09-03T09:40:37.571Z,41.25
2022-09-03T09:42:44.254Z,41.57
2022-09-03T09:44:48.863Z,41.13
2022-09-03T09:47:06.883Z,41.03
2022-09-03T09:49:21.264Z,41.37
2022-09-03T09:51:27.037Z,40.92
2022-09-03T09:53:31.873Z,40.97
2022-09-03T09:55:39.103Z,40.30
2022-09-03T09:57:43.711Z,40.60
2022-09-03T09:59:50.665Z,40.72
2022-09-03T10:02:06.284Z,40.93
2022-09-03T10:04:15.011Z,41.29
2022-09-03T10:06:32.362Z,40.73
2022-09-03T10:08:37.252Z,40.93
2022-09-03T10:10:45.886Z,40.88
2022-09-03T10:12:59.612Z,41.22
2022-09-03T10:15:06.531Z,40.62
2022-09-03T10:17:20.063Z,40.98
2022-09-03T10:19:34.678Z,40.56
2022-09-03T10:21:44.470Z,40.50
2022-09-03T10:23:53.817Z,40.55
2022-09-03T10:26:07.395Z,40.45
2022-09-03T10:28:13.974Z,40.60
2022-09-03T10:30:18.624Z,40.60
2022-09-03T10:32:37.999Z,40.85
2022-09-03T10:34:49.134Z,40.66
2022-09-03T10:36:59.747Z,40.95
2022-09-03T10:39:07.582Z,40.54
2022-09-03T10:41:19.380Z,40.34
2022-09-03T10:43:33.223Z,40.61
2022-09-03T10:45:41.818Z,40.59
2022-09-03T10:48:01.297Z,40.57
2022-09-03T10:50:16.561Z,40.42
2022-09-03T10:52:28.847Z,39.84
2022-09-03T10:54:39.796Z,40.35
2022-09-03T10:56:49.352Z,39.84
2022-09-03T10:59:02.460Z,39.85
2022-09-03T11:01:11.160Z,40.11
2022-09-03T11:03:35.762Z,39.87
2022-09-03T11:05:45.481Z,39.78
2022-09-03T11:07:53.307Z,39.55
2022-09-03T11:10:00.562Z,39.05
2022-09-03T11:12:08.764Z,39.00
2022-09-03T11:14:15.443Z,38.46
2022-09-03T11:16:20.790Z,38.51
2022-09-03T11:18:28.528Z,38.37
2022-09-03T11:20:33.545Z,37.89
2022-09-03T11:22:42.442Z,37.35
2022-09-03T11:24:48.806Z,37.37
2022-09-03T11:26:56.563Z,37.67
2022-09-03T11:29:04.212Z,37.56
2022-09-03T11:31:17.807Z,37.25
2022-09-03T11:33:25.135Z,37.52
2022-09-03T11:35:31.543Z,37.48
2022-09-03T11:37:36.284Z,37.64
2022-09-03T11:39:44.285Z,37.56
2022-09-03T11:42:00.107Z,37.48
2022-09-03T11:44:14.540Z,37.90
2022-09-03T11:46:30.689Z,38.45
2022-09-03T11:48:39.381Z,38.19
2022-09-03T11:50:54.378Z,38.32
2022-09-03T11:53:12.955Z,38.46
2022-09-03T11:55:36.098Z,37.98
2022-09-03T11:57:47.347Z,37.92
2022-09-03T11:59:51.928Z,38.42
2022-09-03T12:02:01.699Z,38.24
2022-09-03T12:04:09.776Z,38.75
2022-09-03T12:06:27.538Z,38.93
2022-09-03T12:08:45.768Z,39.41
2022-09-03T12:11:00.887Z,39.36
2022-09-03T12:13:15.298Z,39.57
2022-09-03T12:15:25.434Z,40.00
2022-09-03T12:17:33.815Z,39.97
2022-09-03T12:19:40.773Z,39.68
2022-09-03T12:21:45.375Z,39.68
2022-09-03T12:23:51.486Z,39.41
2022-09-03T12:26:07.793Z,38.81
2022-09-03T12:28:16.329Z,38.60
2022-09-03T12:30:22.571Z,39.11
2022-09-03T12:32:27.327Z,38.63
2022-09-03T12:34:34.667Z,38.45
2022-09-03T12:36:40.831Z,38.49
2022-09-03T12:39:10.303Z,38.60
2022-09-03T12:41:27.287Z,38.63
2022-09-03T12:43:41.197Z,38.31
2022-09-03T12:48:15.703Z,38.78
2022-09-03T12:50:21.412Z,38.79
2022-09-03T12:52:29.813Z,38.71
2022-09-03T12:54:34.800Z,39.22
2022-09-03T12:56:43.546Z,38.64
2022-09-03T12:58:51.141Z,38.41
2022-09-03T13:00:57.506Z,38.03
2022-09-03T13:03:03.860Z,37.67
2022-09-03T13:05:09.259Z,37.71
2022-09-03T13:07:16.935Z,38.10
2022-09-03T13:09:23.818Z,38.00
2022-09-03T13:11:28.810Z,37.89
2022-09-03T13:13:37.185Z,38.29
2022-09-03T13:15:41.862Z,38.11
2022-09-03T13:18:04.265Z,38.16
2022-09-03T13:20:20.224Z,37.91
2022-09-03T13:22:32.534Z,38.19
2022-09-03T13:24:49.212Z,38.31
2022-09-03T13:27:01.817Z,38.34
2022-09-03T13:29:18.689Z,38.49
2022-09-03T13:31:27.094Z,39.08
2022-09-03T13:33:36.010Z,39.39
2022-09-03T13:35:42.001Z,39.79
2022-09-03T13:37:48.491Z,39.90
2022-09-03T13:39:57.406Z,39.99
2022-09-03T13:42:09.168Z,40.24
2022-09-03T13:44:19.227Z,39.91
2022-09-03T13:46:26.531Z,40.23
2022-09-03T13:48:47.004Z,40.08
2022-09-03T13:50:59.599Z,40.35
2022-09-03T13:53:07.803Z,39.82
2022-09-03T13:55:15.565Z,39.89
2022-09-03T13:57:27.123Z,40.04
2022-09-03T13:59:38.301Z,40.30
2022-09-03T14:01:49.703Z,39.72
2022-09-03T14:03:56.294Z,39.93
2022-09-03T14:06:05.741Z,39.58
2022-09-03T14:08:15.443Z,39.76
2022-09-03T14:10:24.409Z,39.93
2022-09-03T14:12:38.582Z,39.89
2022-09-03T14:14:48.866Z,39.51
2022-09-03T14:17:00.097Z,39.93
2022-09-03T14:19:07.522Z,39.94
2022-09-03T14:21:16.269Z,39.71
2022-09-03T14:23:27.535Z,39.93
2022-09-03T14:25:32.767Z,39.98
2022-09-03T14:27:37.647Z,40.34
2022-09-03T14:29:52.905Z,39.99
2022-09-03T14:32:15.085Z,40.83
2022-09-03T14:34:26.469Z,40.34
2022-09-03T14:36:39.187Z,40.76
2022-09-03T14:38:58.751Z,41.00
2022-09-03T14:41:07.857Z,41.17
2022-09-03T14:43:19.982Z,41.36
2022-09-03T14:45:33.458Z,42.18
2022-09-03T14:47:46.874Z,42.57
2022-09-03T14:50:05.978Z,42.89
2022-09-03T14:52:17.718Z,43.31
2022-09-03T14:54:37.876Z,43.13
2022-09-03T14:56:52.118Z,43.28
2022-09-03T14:59:06.702Z,43.59
2022-09-03T15:01:15.387Z,43.37
2022-09-03T15:03:34.915Z,43.61
2022-09-03T15:05:54.844Z,43.91
2022-09-03T15:08:03.137Z,44.38
2022-09-03T15:10:16.982Z,44.00
2022-09-03T15:12:23.932Z,44.62
2022-09-03T15:14:30.333Z,44.52
2022-09-03T15:16:42.988Z,44.70
2022-09-03T15:18:53.801Z,45.17
2022-09-03T15:21:09.465Z,45.47
2022-09-03T15:23:26.921Z,45.84
2022-09-03T15:25:35.678Z,45.70
2022-09-03T15:27:47.339Z,45.79
2022-09-03T15:29:54.525Z,46.51
2022-09-03T15:32:03.698Z,46.15
2022-09-03T15:34:13.341Z,46.78
2022-09-03T15:36:23.348Z,47.02
2022-09-03T15:38:32.739Z,47.38
2022-09-03T15:40:39.871Z,47.18
2022-09-03T15:42:46.244Z,47.21
2022-09-03T15:44:52.605Z,47.61
2022-09-03T15:47:00.612Z,48.11
2022-09-03T15:49:09.073Z,47.95
2022-09-03T15:51:19.076Z,47.81
2022-09-03T15:53:31.886Z,47.93
2022-09-03T15:55:38.002Z,48.27
2022-09-03T15:57:49.917Z,48.19
2022-09-03T16:00:02.284Z,48.20
2022-09-03T16:02:13.402Z,48.87
2022-09-03T16:04:28.305Z,50.47
2022-09-03T16:06:38.511Z,51.31
2022-09-03T16:08:50.513Z,53.56
2022-09-03T16:11:01.883Z,55.84
2022-09-03T16:13:10.960Z,59.10
2022-09-03T16:15:23.452Z,97.24
2022-09-03T16:17:31.168Z,100.00
2022-09-03T16:19:39.545Z,100.00
2022-09-03T16:21:49.139Z,100.00
2022-09-03T16:23:58.894Z,100.00
2022-09-03T16:26:06.369Z,100.00
2022-09-03T16:28:15.144Z,100.00
2022-09-03T16:30:25.069Z,100.00
2022-09-03T16:32:47.534Z,100.00
2022-09-03T16:34:57.717Z,100.00
2022-09-03T16:37:07.389Z,100.00
2022-09-03T16:39:19.478Z,100.00
2022-09-03T16:41:29.238Z,100.00
2022-09-03T16:43:42.508Z,100.00
2022-09-03T16:45:51.683Z,100.00
2022-09-03T16:48:08.048Z,100.00
2022-09-03T16:50:23.715Z,100.00
2022-09-03T16:52:39.017Z,100.00
2022-09-03T16:54:57.377Z,100.00
2022-09-03T16:57:07.589Z,100.00
2022-09-03T16:59:18.261Z,100.00
2022-09-03T17:01:44.496Z,100.00
2022-09-03T17:04:09.873Z,100.00
2022-09-03T17:06:23.731Z,100.00
2022-09-03T17:08:34.002Z,100.00
2022-09-03T17:10:48.077Z,100.00
2022-09-03T17:12:58.706Z,100.00
2022-09-03T17:15:18.758Z,100.00
2022-09-03T17:17:30.463Z,100.00
2022-09-03T17:19:37.519Z,100.00
2022-09-03T17:21:51.062Z,100.00
2022-09-03T17:24:02.610Z,100.00
2022-09-03T17:26:14.219Z,100.00
2022-09-03T17:28:28.248Z,100.00
2022-09-03T17:30:40.911Z,100.00
2022-09-03T17:32:57.258Z,100.00
2022-09-03T17:35:09.213Z,100.00
2022-09-03T17:37:22.277Z,100.00
2022-09-03T17:39:35.079Z,100.00
2022-09-03T17:41:46.181Z,100.00
2022-09-03T17:43:54.662Z,100.00
2022-09-03T17:46:02.236Z,100.00
2022-09-03T17:48:26.298Z,100.00
2022-09-03T17:50:32.149Z,100.00
2022-09-03T17:52:41.571Z,100.00
2022-09-03T17:54:50.834Z,100.00
2022-09-03T17:57:03.551Z,100.00
2022-09-03T17:59:10.960Z,100.00
2022-09-03T18:01:18.545Z,100.00
2022-09-03T18:03:26.717Z,100.00
2022-09-03T18:05:33.622Z,100.00
2022-09-03T18:07:45.819Z,100.00
2022-09-03T18:09:54.961Z,100.00
2022-09-03T18:12:09.131Z,100.00
2022-09-03T18:14:19.760Z,100.00
2022-09-03T18:16:29.091Z,100.00
2022-09-03T18:18:34.894Z,100.00
2022-09-03T18:21:20.782Z,100.00
2022-09-03T18:23:36.450Z,100.00
2022-09-03T18:25:55.984Z,100.00
2022-09-03T18:28:17.421Z,100.00
2022-09-03T18:30:34.422Z,100.00
2022-09-03T18:32:51.473Z,100.00
2022-09-03T18:35:08.495Z,100.00
2022-09-03T18:37:25.699Z,100.00
2022-09-03T18:39:43.256Z,100.00
2022-09-03T18:42:07.968Z,100.00
2022-09-03T18:44:33.129Z,100.00
2022-09-03T18:49:39.640Z,100.00
2022-09-03T18:52:01.146Z,100.00
2022-09-03T18:54:27.608Z,100.00
2022-09-03T18:56:50.441Z,100.00
2022-09-03T18:59:15.874Z,100.00
2022-09-03T19:01:41.894Z,100.00
2022-09-03T19:04:04.674Z,100.00
2022-09-03T19:06:29.658Z,100.00
2022-09-03T19:08:52.166Z,100.00
2022-09-03T19:11:12.136Z,100.00
2022-09-03T19:13:36.381Z,100.00
2022-09-03T19:15:56.639Z,100.00
2022-09-03T19:18:31.619Z,100.00
2022-09-03T19:20:52.213Z,100.00
2022-09-03T19:23:09.164Z,100.00
2022-09-03T19:25:27.471Z,100.00
2022-09-03T19:27:59.586Z,100.00
2022-09-03T19:30:20.597Z,100.00
2022-09-03T19:32:41.191Z,100.00
2022-09-03T19:35:07.660Z,100.00
2022-09-03T19:37:30.881Z,100.00
2022-09-03T19:39:57.315Z,100.00
2022-09-03T19:42:18.262Z,100.00
2022-09-03T19:44:43.047Z,100.00
2022-09-03T19:47:02.313Z,100.00
2022-09-03T19:49:24.796Z,100.00
2022-09-03T19:51:45.615Z,100.00
2022-09-03T19:54:05.784Z,100.00
2022-09-03T19:56:26.117Z,100.00
2022-09-03T19:58:45.763Z,100.00
2022-09-03T20:01:02.855Z,100.00
2022-09-03T20:03:20.780Z,100.00
2022-09-03T20:05:37.936Z,100.00
2022-09-03T20:07:54.947Z,100.00
2022-09-03T20:10:16.751Z,100.00
2022-09-03T20:12:23.676Z,100.00
2022-09-03T20:14:28.454Z,100.00
2022-09-03T20:16:35.487Z,100.00
2022-09-03T20:18:45.597Z,100.00
2022-09-03T20:20:55.267Z,100.00
2022-09-03T20:23:02.878Z,100.00
2022-09-03T20:25:17.929Z,100.00
2022-09-03T20:27:31.939Z,100.00
2022-09-03T20:29:54.736Z,100.00
2022-09-03T20:32:04.499Z,100.00
2022-09-03T20:34:18.307Z,100.00
2022-09-03T20:36:26.655Z,100.00
2022-09-03T20:38:43.761Z,100.00
2022-09-03T20:40:56.737Z,100.00
2022-09-03T20:43:15.038Z,100.00
2022-09-03T20:45:21.629Z,100.00
2022-09-03T20:47:43.780Z,100.00
2022-09-03T20:49:55.894Z,100.00
2022-09-03T20:52:06.547Z,100.00
2022-09-03T20:54:15.570Z,100.00
2022-09-03T20:56:28.175Z,100.00
2022-09-03T20:58:36.741Z,100.00
2022-09-03T21:00:48.146Z,100.00
2022-09-03T21:03:12.854Z,100.00
2022-09-03T21:05:20.216Z,100.00
2022-09-03T21:07:29.378Z,100.00
2022-09-03T21:09:45.498Z,100.00
2022-09-03T21:11:55.859Z,100.00
2022-09-03T21:14:04.766Z,100.00
2022-09-03T21:16:23.530Z,100.00
2022-09-03T21:18:33.172Z,100.00
2022-09-03T21:20:46.401Z,100.00
2022-09-03T21:22:58.807Z,100.00
2022-09-03T21:25:05.970Z,100.00
2022-09-03T21:27:20.912Z,100.00
2022-09-03T21:29:28.329Z,100.00
2022-09-03T21:31:38.500Z,100.00
2022-09-03T21:33:47.693Z,100.00
2022-09-03T21:35:54.212Z,100.00
2022-09-03T21:38:01.169Z,100.00
2022-09-03T21:40:08.032Z,100.00
2022-09-03T21:42:20.731Z,100.00
2022-09-03T21:44:28.575Z,100.00
2022-09-03T21:46:35.696Z,100.00
2022-09-03T21:48:43.054Z,100.00
2022-09-03T21:50:54.032Z,100.00
2022-09-03T21:53:00.924Z,100.00
2022-09-03T21:55:06.145Z,100.00
2022-09-03T21:57:22.479Z,100.00
2022-09-03T21:59:44.187Z,100.00
2022-09-03T22:01:55.421Z,100.00
2022-09-03T22:04:00.035Z,100.00
2022-09-03T22:06:06.357Z,100.00
2022-09-03T22:08:15.679Z,100.00
2022-09-03T22:10:24.014Z,100.00
2022-09-03T22:12:33.860Z,100.00
2022-09-03T22:14:43.200Z,100.00
2022-09-03T22:16:50.322Z,100.00
2022-09-03T22:18:56.820Z,100.00
2022-09-03T22:21:05.293Z,100.00
2022-09-03T22:23:14.057Z,100.00
2022-09-03T22:25:21.289Z,100.00
2022-09-03T22:27:29.914Z,100.00
2022-09-03T22:29:43.800Z,100.00
2022-09-03T22:31:55.440Z,100.00
2022-09-03T22:34:06.302Z,100.00
2022-09-03T22:36:16.321Z,100.00
2022-09-03T22:38:33.575Z,100.00
2022-09-03T22:40:42.188Z,100.00
2022-09-03T22:42:54.213Z,100.00
2022-09-03T22:45:10.843Z,100.00
2022-09-03T22:47:21.480Z,100.00
2022-09-03T22:49:38.174Z,100.00
2022-09-03T22:51:49.648Z,100.00
2022-09-03T22:54:03.636Z,100.00
2022-09-03T22:56:09.895Z,100.00
2022-09-03T22:58:16.766Z,100.00
2022-09-03T23:00:24.049Z,100.00
2022-09-03T23:02:30.196Z,100.00
2022-09-03T23:04:39.784Z,100.00
2022-09-03T23:06:51.113Z,100.00
2022-09-03T23:08:59.468Z,100.00
2022-09-03T23:11:07.765Z,100.00
2022-09-03T23:13:13.827Z,100.00
2022-09-03T23:15:20.935Z,100.00
2022-09-03T23:19:41.025Z,100.00
2022-09-03T23:21:53.619Z,100.00
2022-09-03T23:24:02.639Z,100.00
2022-09-03T23:26:13.456Z,100.00
2022-09-03T23:28:21.897Z,100.00
2022-09-03T23:30:26.609Z,100.00
2022-09-03T23:32:34.266Z,100.00
2022-09-03T23:34:40.811Z,100.00
2022-09-03T23:37:29.578Z,100.00
2022-09-03T23:39:41.423Z,100.00
2022-09-03T23:41:50.968Z,100.00
2022-09-03T23:44:05.791Z,100.00
2022-09-03T23:46:16.922Z,100.00
2022-09-03T23:48:30.094Z,100.00
2022-09-03T23:50:38.676Z,100.00
2022-09-03T23:52:53.184Z,100.00
2022-09-03T23:55:05.263Z,100.00
2022-09-03T23:57:14.062Z,100.00
2022-09-03T23:59:24.342Z,100.00
